Time;durP1;ratioP1;P1;durP2;ratioP2;P2;SDS_P1;SDS_P2;PMS_P1;PMS_P2;Temp;Humidity;BMP_temperature;BMP_pressure;BME280_temperature;BME280_humidity;BME280_pressure;Samples;Min_cycle;Max_cycle;Signal;HPM_P1;HPM_P2
2022/06/02 00:02:09;;;;;;;1.30;1.10;;;16.40;48.50;;;;;;4934632;29;20095;-86
2022/06/02 00:04:43;;;;;;;1.50;1.00;;;16.40;48.60;;;;;;4948074;29;20390;-86
2022/06/02 00:07:18;;;;;;;1.17;0.88;;;16.30;49.00;;;;;;4954695;29;20046;-86
2022/06/02 00:09:43;;;;;;;1.50;0.88;;;16.30;49.50;;;;;;4958756;28;20035;-86
2022/06/02 00:12:28;;;;;;;2.03;1.35;;;16.30;49.20;;;;;;4939312;28;20042;-86
2022/06/02 00:15:15;;;;;;;4.10;1.25;;;16.30;49.30;;;;;;4937150;29;20131;-86
2022/06/02 00:18:04;;;;;;;1.80;1.30;;;16.30;49.60;;;;;;4935491;29;20027;-85
2022/06/02 00:20:42;;;;;;;3.28;1.00;;;16.30;49.80;;;;;;4946772;29;20688;-86
2022/06/02 00:23:29;;;;;;;1.77;1.17;;;16.30;49.90;;;;;;4953848;28;20031;-86
2022/06/02 00:26:08;;;;;;;1.40;1.10;;;16.30;49.60;;;;;;4942517;28;20526;-85
2022/06/02 00:28:52;;;;;;;2.10;1.25;;;16.30;49.90;;;;;;4937750;29;20046;-86
2022/06/02 00:31:33;;;;;;;1.42;1.08;;;16.30;50.10;;;;;;4938573;29;20672;-86
2022/06/02 00:34:11;;;;;;;3.92;1.35;;;16.20;50.20;;;;;;4941382;29;20038;-86
2022/06/02 00:37:00;;;;;;;4.05;1.15;;;16.20;50.10;;;;;;4939104;29;20035;-87
2022/06/02 00:39:29;;;;;;;1.77;1.30;;;16.20;50.00;;;;;;4942349;29;20123;-86
2022/06/02 00:42:04;;;;;;;1.90;1.50;;;16.20;50.50;;;;;;4939134;29;20066;-87
2022/06/02 00:44:29;;;;;;;3.17;1.50;;;16.20;50.60;;;;;;4943041;29;20118;-86
2022/06/02 00:47:04;;;;;;;2.75;1.00;;;16.20;50.90;;;;;;4939138;29;20065;-86
2022/06/02 00:49:37;;;;;;;3.67;1.27;;;16.10;50.90;;;;;;4971024;28;20040;-86
2022/06/02 00:52:11;;;;;;;2.83;1.77;;;16.20;50.70;;;;;;4938876;29;20124;-86
2022/06/02 00:57:58;;;;;;;3.90;1.27;;;16.10;50.80;;;;;;4939096;29;20050;-86
2022/06/02 01:00:35;;;;;;;1.23;1.02;;;16.10;51.50;;;;;;4941133;29;20024;-84
2022/06/02 01:03:07;;;;;;;2.20;1.30;;;16.10;51.40;;;;;;4939108;29;20034;-86
2022/06/02 01:05:38;;;;;;;2.05;1.10;;;16.00;51.20;;;;;;4938755;29;20034;-86
2022/06/02 01:08:21;;;;;;;1.55;1.17;;;16.00;52.00;;;;;;4941869;29;20032;-86
2022/06/02 01:11:42;;;;;;;2.25;1.30;;;16.00;51.50;;;;;;4953652;28;20043;-86
2022/06/02 01:14:29;;;;;;;4.07;1.30;;;16.00;51.60;;;;;;4938951;29;20067;-86
2022/06/02 01:17:22;;;;;;;1.75;1.50;;;16.00;51.80;;;;;;4944152;29;20042;-86
2022/06/02 01:20:11;;;;;;;3.17;1.55;;;16.00;51.60;;;;;;4959460;28;20035;-87
2022/06/02 01:22:40;;;;;;;2.45;1.42;;;16.10;51.60;;;;;;4957830;28;20078;-87
2022/06/02 01:25:40;;;;;;;2.13;1.42;;;16.10;51.40;;;;;;4960028;28;20027;-86
2022/06/02 01:28:47;;;;;;;3.17;1.17;;;16.10;51.20;;;;;;4938291;29;20031;-86
2022/06/02 01:31:37;;;;;;;1.52;1.10;;;16.10;51.30;;;;;;4938516;29;20118;-86
2022/06/02 01:34:07;;;;;;;;;;;16.20;51.50;;;;;;4949233;29;20107;-87
2022/06/02 01:36:54;;;;;;;2.00;1.23;;;16.20;51.50;;;;;;4941825;29;19911;-86
2022/06/02 01:40:05;;;;;;;;;;;;;;;;;;;;;
2022/06/02 01:42:39;;;;;;;1.60;1.20;;;16.10;51.70;;;;;;4939851;29;20120;-86
2022/06/02 01:45:26;;;;;;;1.77;1.40;;;16.10;51.60;;;;;;4938257;29;20028;-86
2022/06/02 01:48:18;;;;;;;2.72;1.50;;;16.10;51.80;;;;;;4941322;29;20028;-86
2022/06/02 01:51:22;;;;;;;;;;;;;;;;;;;;;
2022/06/02 01:54:15;;;;;;;2.70;1.20;;;16.00;52.20;;;;;;4940299;29;20115;-86
2022/06/02 01:57:16;;;;;;;2.47;1.50;;;16.00;52.20;;;;;;4946101;29;20043;-86
2022/06/02 01:59:45;;;;;;;1.77;1.35;;;16.00;52.00;;;;;;4957089;29;20038;-86
2022/06/02 02:02:20;;;;;;;2.08;1.48;;;16.00;52.60;;;;;;4956916;28;20031;-86
2022/06/02 02:05:07;;;;;;;3.65;1.30;;;16.00;52.50;;;;;;4960158;28;20515;-87
2022/06/02 02:07:44;;;;;;;2.75;1.42;;;16.00;52.30;;;;;;4955548;28;20035;-86
2022/06/02 02:10:47;;;;;;;1.45;1.35;;;15.90;53.10;;;;;;4959102;28;20032;-86
2022/06/02 02:13:31;;;;;;;2.00;1.60;;;16.00;52.50;;;;;;4956603;28;20082;-86
2022/06/02 02:16:49;;;;;;;2.22;1.35;;;15.90;52.90;;;;;;4959966;29;20027;-87
2022/06/02 02:19:25;;;;;;;1.92;1.45;;;15.90;52.80;;;;;;4953392;28;20134;-87
2022/06/02 02:21:59;;;;;;;2.72;1.52;;;15.90;52.40;;;;;;4959894;28;20106;-87
2022/06/02 02:24:31;;;;;;;3.15;1.60;;;15.80;52.90;;;;;;4956478;28;20107;-86
2022/06/02 02:27:06;;;;;;;3.10;1.35;;;15.90;52.90;;;;;;4943587;28;20058;-86
2022/06/02 02:29:57;;;;;;;3.50;1.35;;;15.90;52.60;;;;;;4951827;29;20023;-86
2022/06/02 02:33:00;;;;;;;2.45;1.45;;;15.90;52.90;;;;;;4959110;28;20103;-86
2022/06/02 02:36:10;;;;;;;1.67;1.30;;;15.90;52.60;;;;;;4954157;29;20066;-86
2022/06/02 02:39:03;;;;;;;1.90;1.30;;;15.90;52.60;;;;;;4940747;29;20028;-86
2022/06/02 02:41:53;;;;;;;2.38;1.50;;;15.90;52.50;;;;;;4935916;29;20139;-86
2022/06/02 02:44:31;;;;;;;1.83;1.30;;;15.90;53.00;;;;;;4939829;29;20044;-87
2022/06/02 02:47:06;;;;;;;2.58;1.23;;;15.90;52.60;;;;;;4955675;29;20043;-87
2022/06/02 02:49:46;;;;;;;2.10;1.42;;;15.90;53.10;;;;;;4956867;29;20038;-86
2022/06/02 02:52:32;;;;;;;2.13;1.38;;;15.90;53.00;;;;;;4951023;28;20679;-87
2022/06/02 02:55:21;;;;;;;2.05;1.25;;;15.80;53.50;;;;;;4940101;29;20055;-86
2022/06/02 02:58:20;;;;;;;2.00;1.40;;;15.90;53.80;;;;;;4944143;29;20039;-86
2022/06/02 03:01:04;;;;;;;2.35;1.42;;;15.80;53.40;;;;;;4958491;28;20050;-86
2022/06/02 03:03:49;;;;;;;2.53;1.35;;;15.90;53.80;;;;;;4955628;28;20031;-85
2022/06/02 03:06:32;;;;;;;2.22;1.35;;;15.80;53.40;;;;;;4953648;28;20031;-86
2022/06/02 03:09:05;;;;;;;2.10;1.58;;;15.80;53.50;;;;;;4936616;29;20032;-86
2022/06/02 03:11:50;;;;;;;2.75;1.40;;;15.80;53.80;;;;;;4956667;29;20809;-87
2022/06/02 03:14:53;;;;;;;2.05;1.27;;;15.80;53.30;;;;;;4955549;28;20034;-87
2022/06/02 03:17:33;;;;;;;2.03;1.50;;;15.80;54.60;;;;;;4959002;29;20102;-86
2022/06/02 03:20:36;;;;;;;2.85;1.40;;;15.70;54.50;;;;;;4944697;28;20078;-85
2022/06/02 03:23:26;;;;;;;5.07;1.60;;;15.80;54.80;;;;;;4958202;29;20050;-87
2022/06/02 03:26:01;;;;;;;1.77;1.25;;;15.80;54.00;;;;;;4955490;28;20034;-86
2022/06/02 03:28:51;;;;;;;1.75;1.40;;;15.80;54.40;;;;;;4953638;28;20031;-86
2022/06/02 03:31:27;;;;;;;1.73;1.17;;;15.80;54.30;;;;;;4936324;29;20034;-86
2022/06/02 03:34:19;;;;;;;3.40;1.70;;;15.80;54.30;;;;;;4952983;29;20027;-86
2022/06/02 03:37:16;;;;;;;1.77;1.42;;;15.80;54.00;;;;;;4968470;28;20047;-86
2022/06/02 03:40:14;;;;;;;1.92;1.40;;;15.80;53.90;;;;;;4937509;29;20067;-85
2022/06/02 03:43:10;;;;;;;2.10;1.45;;;15.80;53.90;;;;;;4933792;29;20055;-87
2022/06/02 03:45:42;;;;;;;2.30;1.60;;;15.80;54.20;;;;;;4955597;29;20027;-87
2022/06/02 03:48:08;;;;;;;2.15;1.50;;;15.80;54.30;;;;;;4953734;28;20027;-86
2022/06/02 03:51:05;;;;;;;1.63;1.27;;;15.70;54.20;;;;;;4953282;28;20023;-86
2022/06/02 03:53:31;;;;;;;2.58;1.40;;;15.80;54.30;;;;;;4944386;28;20067;-86
2022/06/02 03:56:15;;;;;;;3.70;1.30;;;15.80;54.20;;;;;;4933973;29;20043;-87
2022/06/02 03:58:58;;;;;;;5.85;1.45;;;15.80;54.50;;;;;;4949290;29;20023;-87
2022/06/02 04:01:28;;;;;;;3.22;1.20;;;15.80;54.40;;;;;;4934925;29;20059;-86
2022/06/02 04:04:00;;;;;;;2.08;1.38;;;15.80;54.40;;;;;;4940674;29;20371;-86
2022/06/02 04:06:52;;;;;;;1.65;1.27;;;15.80;54.80;;;;;;4938491;29;20425;-87
2022/06/02 04:09:54;;;;;;;2.20;1.35;;;15.80;54.00;;;;;;4941599;29;20028;-86
2022/06/02 04:15:53;;;;;;;2.10;1.20;;;15.80;54.10;;;;;;4949925;29;20135;-87
2022/06/02 04:18:58;;;;;;;1.83;1.33;;;15.90;54.20;;;;;;4957402;28;20038;-87
2022/06/02 04:22:09;;;;;;;1.70;1.20;;;15.90;54.50;;;;;;4954305;29;20036;-86
2022/06/02 04:24:51;;;;;;;2.80;1.25;;;15.90;54.30;;;;;;4938007;29;20442;-86
2022/06/02 04:27:23;;;;;;;2.88;1.60;;;15.90;54.30;;;;;;4939109;29;20575;-86
2022/06/02 04:30:01;;;;;;;2.47;1.20;;;15.90;55.20;;;;;;4955870;28;20074;-87
2022/06/02 04:32:59;;;;;;;2.05;1.30;;;15.90;55.00;;;;;;4953296;28;20086;-87
2022/06/02 04:35:36;;;;;;;1.50;1.30;;;15.90;55.30;;;;;;4956362;28;20038;-86
2022/06/02 04:38:49;;;;;;;2.25;1.30;;;15.90;55.20;;;;;;4941487;29;20102;-87
2022/06/02 04:41:48;;;;;;;2.08;1.13;;;15.90;55.50;;;;;;4912402;29;1190413;-86
2022/06/02 04:44:31;;;;;;;3.13;2.03;;;16.00;54.90;;;;;;4948765;29;20057;-88
2022/06/02 04:46:59;;;;;;;1.50;1.30;;;15.90;55.20;;;;;;4957698;29;20035;-80
2022/06/02 04:49:43;;;;;;;4.70;2.05;;;15.90;56.80;;;;;;4958311;28;20019;-78
2022/06/02 04:52:30;;;;;;;3.53;1.70;;;15.80;56.90;;;;;;4944907;28;20031;-78
2022/06/02 04:55:13;;;;;;;3.10;1.67;;;15.80;57.80;;;;;;4937631;29;20099;-79
2022/06/02 04:58:22;;;;;;;1.90;1.33;;;15.70;58.50;;;;;;4955784;28;20047;-79
2022/06/02 05:01:17;;;;;;;3.83;1.70;;;15.70;58.70;;;;;;4953393;29;20402;-79
2022/06/02 05:04:07;;;;;;;3.05;1.73;;;15.70;58.90;;;;;;4969548;28;20035;-79
2022/06/02 05:06:53;;;;;;;2.20;1.10;;;15.80;58.60;;;;;;4956606;29;20607;-79
2022/06/02 05:09:44;;;;;;;2.28;2.08;;;15.80;58.70;;;;;;4937349;29;20046;-79
2022/06/02 05:12:49;;;;;;;2.22;1.50;;;15.80;57.90;;;;;;4953942;29;20093;-85
2022/06/02 05:16:04;;;;;;;2.60;1.88;;;15.80;57.90;;;;;;4944229;28;20062;-78
2022/06/02 05:18:59;;;;;;;2.17;1.70;;;15.90;58.00;;;;;;4938518;29;20024;-79
2022/06/02 05:21:31;;;;;;;1.83;1.50;;;15.90;57.30;;;;;;4950615;29;20031;-79
2022/06/02 05:24:21;;;;;;;2.00;1.25;;;16.00;57.10;;;;;;4953520;29;20852;-78
2022/06/02 05:27:11;;;;;;;4.28;1.50;;;15.90;57.50;;;;;;4956830;29;20083;-78
2022/06/02 05:29:50;;;;;;;;;;;15.90;57.50;;;;;;4954230;29;20030;-78
2022/06/02 05:32:41;;;;;;;4.35;1.20;;;15.90;56.80;;;;;;4963329;28;19997;-78
2022/06/02 05:35:12;;;;;;;;;;;15.90;56.80;;;;;;4939472;29;20063;-78
2022/06/02 05:38:26;;;;;;;6.45;1.42;;;16.00;56.70;;;;;;4948708;29;19910;-79
2022/06/02 05:41:04;;;;;;;2.88;1.02;;;16.00;56.40;;;;;;4955761;29;20542;-78
2022/06/02 05:43:37;;;;;;;2.03;1.40;;;16.00;56.40;;;;;;4955364;28;20031;-78
2022/06/02 05:46:41;;;;;;;3.58;1.38;;;16.00;56.50;;;;;;4940391;28;20098;-79
2022/06/02 05:49:34;;;;;;;4.40;1.27;;;16.10;57.30;;;;;;4937823;29;20036;-77
2022/06/02 05:52:17;;;;;;;2.60;1.17;;;16.10;57.20;;;;;;4938039;29;20023;-78
2022/06/02 05:54:55;;;;;;;1.85;1.33;;;16.20;56.80;;;;;;4937719;29;20549;-78
2022/06/02 05:57:28;;;;;;;1.63;1.13;;;16.20;56.40;;;;;;4937803;29;20688;-78
2022/06/02 06:00:35;;;;;;;3.25;1.30;;;16.30;56.70;;;;;;4945340;29;20020;-78
2022/06/02 06:03:32;;;;;;;3.08;1.10;;;16.30;56.20;;;;;;4951475;29;20668;-79
2022/06/02 06:06:42;;;;;;;1.75;1.20;;;16.30;55.70;;;;;;4937604;29;20110;-78
2022/06/02 06:09:39;;;;;;;7.32;1.42;;;16.40;55.90;;;;;;4942735;29;20572;-78
2022/06/02 06:12:40;;;;;;;2.08;1.20;;;16.40;55.50;;;;;;4950768;29;20054;-78
2022/06/02 06:15:37;;;;;;;2.88;1.25;;;16.40;55.50;;;;;;4955058;28;20050;-79
2022/06/02 06:18:25;;;;;;;1.77;1.17;;;16.50;55.80;;;;;;4955553;28;20417;-79
2022/06/02 06:21:19;;;;;;;2.10;1.30;;;16.50;55.30;;;;;;4955375;28;20016;-78
2022/06/02 06:24:17;;;;;;;1.70;0.98;;;16.50;55.30;;;;;;4944637;28;20149;-78
2022/06/02 06:26:55;;;;;;;3.25;1.10;;;16.50;55.80;;;;;;4945537;29;20131;-78
2022/06/02 06:30:11;;;;;;;1.85;1.20;;;16.60;55.70;;;;;;4956293;28;20023;-78
2022/06/02 06:32:37;;;;;;;2.08;1.40;;;16.70;55.20;;;;;;4953359;29;20023;-78
2022/06/02 06:35:18;;;;;;;3.20;1.17;;;16.70;55.60;;;;;;4954638;28;20050;-78
2022/06/02 06:38:03;;;;;;;1.45;1.05;;;16.80;54.90;;;;;;4956242;28;20050;-78
2022/06/02 06:40:40;;;;;;;2.33;1.17;;;16.80;54.80;;;;;;4954114;28;20027;-78
2022/06/02 06:43:18;;;;;;;5.72;1.65;;;16.80;54.80;;;;;;4954386;29;20035;-79
2022/06/02 06:46:05;;;;;;;2.50;1.65;;;16.90;55.00;;;;;;4955777;28;20069;-83
2022/06/02 06:48:40;;;;;;;2.55;2.10;;;16.90;55.00;;;;;;4954576;29;20663;-77
2022/06/02 06:51:16;;;;;;;2.03;1.17;;;16.90;54.90;;;;;;4947798;29;20063;-77
2022/06/02 06:54:05;;;;;;;3.20;1.50;;;16.90;55.00;;;;;;4954496;28;20512;-77
2022/06/02 06:57:12;;;;;;;2.22;1.10;;;16.90;55.10;;;;;;4926538;29;20102;-77
2022/06/02 07:00:07;;;;;;;4.55;1.30;;;16.90;54.50;;;;;;4945401;29;20035;-77
2022/06/02 07:03:02;;;;;;;3.17;1.30;;;17.00;54.80;;;;;;4953471;28;20094;-77
2022/06/02 07:05:36;;;;;;;2.20;1.27;;;17.00;54.60;;;;;;4955309;28;20107;-77
2022/06/02 07:08:43;;;;;;;1.40;0.93;;;17.10;54.30;;;;;;4936497;29;20545;-77
2022/06/02 07:14:17;;;;;;;1.85;1.15;;;17.20;54.20;;;;;;4952979;28;20079;-77
2022/06/02 07:16:55;;;;;;;2.70;1.48;;;17.20;54.20;;;;;;4940347;29;20024;-77
2022/06/02 07:19:50;;;;;;;5.00;1.42;;;17.20;54.00;;;;;;4936146;29;20042;-78
2022/06/02 07:22:51;;;;;;;4.35;1.45;;;17.30;53.90;;;;;;4936191;29;20024;-77
2022/06/02 07:25:34;;;;;;;2.00;1.40;;;17.40;53.50;;;;;;4933688;29;20045;-77
2022/06/02 07:28:29;;;;;;;2.22;1.30;;;17.50;53.70;;;;;;4949699;28;20035;-78
2022/06/02 07:31:00;;;;;;;3.25;1.00;;;17.60;53.30;;;;;;4953921;28;20074;-77
2022/06/02 07:33:30;;;;;;;2.03;1.20;;;17.70;53.60;;;;;;4955230;28;20023;-77
2022/06/02 07:36:15;;;;;;;1.63;1.25;;;17.80;53.40;;;;;;4953422;28;20070;-78
2022/06/02 07:39:11;;;;;;;1.83;1.30;;;18.00;53.00;;;;;;4953108;28;20058;-78
2022/06/02 07:42:12;;;;;;;2.92;1.85;;;18.30;52.70;;;;;;4935842;29;20062;-77
2022/06/02 07:45:12;;;;;;;2.17;1.20;;;18.50;52.90;;;;;;4941471;28;20023;-78
2022/06/02 07:47:56;;;;;;;2.58;1.25;;;18.50;51.40;;;;;;4953330;28;20030;-78
2022/06/02 07:50:30;;;;;;;1.75;1.10;;;18.60;52.50;;;;;;4936452;28;20125;-78
2022/06/02 07:53:25;;;;;;;2.38;1.40;;;18.70;51.50;;;;;;4935705;29;20024;-78
2022/06/02 07:56:07;;;;;;;2.20;1.13;;;18.90;51.70;;;;;;4959191;28;20138;-78
2022/06/02 07:59:05;;;;;;;1.85;1.10;;;19.00;50.30;;;;;;4940500;29;20027;-78
2022/06/02 08:01:32;;;;;;;4.65;1.42;;;19.10;51.20;;;;;;4966818;28;20059;-78
2022/06/02 08:04:24;;;;;;;1.52;1.13;;;19.20;50.90;;;;;;4954961;28;20027;-78
2022/06/02 08:06:59;;;;;;;3.15;1.55;;;19.20;50.30;;;;;;4952048;28;20036;-78
2022/06/02 08:09:39;;;;;;;1.30;0.95;;;19.40;50.90;;;;;;4935766;29;20483;-78
2022/06/02 08:12:27;;;;;;;1.92;1.27;;;19.40;49.80;;;;;;4938235;28;20035;-78
2022/06/02 08:14:56;;;;;;;1.42;0.90;;;19.30;51.10;;;;;;4941630;28;20107;-78
2022/06/02 08:17:33;;;;;;;1.65;1.10;;;19.30;50.30;;;;;;4951468;28;20047;-77
2022/06/02 08:20:36;;;;;;;2.00;1.30;;;19.30;50.60;;;;;;4948277;28;20102;-77
2022/06/02 08:23:24;;;;;;;2.95;1.17;;;19.30;51.10;;;;;;4955179;28;20048;-77
2022/06/02 08:25:54;;;;;;;2.97;1.90;;;19.20;50.60;;;;;;4950045;28;20034;-77
2022/06/02 08:28:32;;;;;;;2.25;1.40;;;19.20;51.40;;;;;;4935127;29;20446;-77
2022/06/02 08:31:18;;;;;;;2.17;1.27;;;19.30;51.60;;;;;;4935462;29;20513;-78
2022/06/02 08:33:54;;;;;;;3.80;1.30;;;19.20;52.00;;;;;;4948620;29;20027;-78
2022/06/02 08:36:30;;;;;;;3.38;1.20;;;19.30;52.10;;;;;;4953155;28;20027;-78
2022/06/02 08:39:32;;;;;;;74.72;11.05;;;19.30;52.30;;;;;;4953625;28;20430;-78
2022/06/02 08:42:19;;;;;;;7.63;1.80;;;19.50;52.10;;;;;;4938173;28;20058;-78
2022/06/02 08:44:57;;;;;;;2.35;1.35;;;19.70;52.00;;;;;;4934271;29;20032;-77
2022/06/02 08:47:58;;;;;;;1.83;1.10;;;19.90;52.10;;;;;;4935503;29;20083;-78
2022/06/02 08:50:42;;;;;;;4.28;1.60;;;20.00;51.20;;;;;;4936325;29;20340;-78
2022/06/02 08:53:45;;;;;;;2.35;1.40;;;20.30;51.00;;;;;;4946630;29;20041;-78
2022/06/02 08:56:33;;;;;;;3.33;1.00;;;20.60;51.20;;;;;;4941575;29;20023;-77
2022/06/02 08:59:30;;;;;;;2.67;1.13;;;20.90;50.00;;;;;;4938677;29;20036;-78
2022/06/02 09:02:34;;;;;;;2.40;1.33;;;21.30;48.50;;;;;;4938861;29;20466;-78
2022/06/02 09:05:27;;;;;;;3.10;1.40;;;22.60;45.40;;;;;;4927530;29;20039;-78
2022/06/02 09:08:31;;;;;;;4.40;1.17;;;23.60;43.00;;;;;;4938872;29;20027;-78
2022/06/02 09:11:22;;;;;;;4.75;1.00;;;24.80;40.30;;;;;;4942795;29;20469;-76
2022/06/02 09:14:06;;;;;;;2.58;1.13;;;24.50;39.30;;;;;;4956790;28;20051;-76
2022/06/02 09:16:41;;;;;;;1.33;0.90;;;24.40;38.90;;;;;;4956527;28;20042;-76
2022/06/02 09:19:38;;;;;;;2.30;1.00;;;24.00;39.90;;;;;;4937133;29;20083;-76
2022/06/02 09:22:13;;;;;;;2.42;1.17;;;24.30;39.70;;;;;;4956375;29;20038;-75
2022/06/02 09:24:43;;;;;;;1.85;1.08;;;25.60;37.50;;;;;;4952616;28;20042;-76
2022/06/02 09:27:50;;;;;;;2.05;0.90;;;26.50;37.10;;;;;;4938046;29;20111;-76
2022/06/02 09:30:26;;;;;;;2.42;1.02;;;26.50;36.10;;;;;;4952936;29;20032;-76
2022/06/02 09:33:34;;;;;;;2.92;1.08;;;26.30;37.70;;;;;;4939748;29;20107;-76
2022/06/02 09:36:34;;;;;;;4.72;1.40;;;26.60;37.60;;;;;;4938134;29;20035;-76
2022/06/02 09:39:18;;;;;;;;;;;26.40;35.90;;;;;;4938585;29;20028;-76
2022/06/02 09:42:03;;;;;;;2.03;0.88;;;26.40;35.70;;;;;;4952571;28;19918;-76
2022/06/02 09:44:57;;;;;;;3.22;1.00;;;26.10;36.70;;;;;;4937603;29;20541;-76
2022/06/02 09:47:29;;;;;;;3.72;1.05;;;27.10;37.40;;;;;;4936552;29;20036;-75
2022/06/02 09:50:31;;;;;;;2.20;0.90;;;28.30;33.30;;;;;;4943989;29;20046;-76
2022/06/02 09:53:23;;;;;;;3.70;1.38;;;29.80;31.10;;;;;;4955813;28;20035;-76
2022/06/02 09:55:57;;;;;;;1.83;0.93;;;30.80;31.40;;;;;;4957121;28;20032;-76
2022/06/02 09:58:51;;;;;;;3.13;1.52;;;31.50;30.20;;;;;;4956711;28;20042;-76
2022/06/02 10:01:38;;;;;;;1.70;1.15;;;31.80;29.50;;;;;;4936538;29;20031;-76
2022/06/02 10:04:31;;;;;;;3.92;1.05;;;32.90;29.10;;;;;;4937661;29;20567;-76
2022/06/02 10:07:25;;;;;;;1.30;0.65;;;33.10;27.70;;;;;;4936164;29;20074;-76
2022/06/02 10:10:02;;;;;;;1.75;0.80;;;32.90;27.60;;;;;;4936271;29;20708;-76
2022/06/02 10:12:55;;;;;;;2.70;1.10;;;33.80;25.80;;;;;;4952304;29;20031;-76
2022/06/02 10:15:54;;;;;;;2.65;0.98;;;34.20;25.20;;;;;;4954267;28;20038;-76
2022/06/02 10:18:43;;;;;;;2.35;0.98;;;34.80;25.80;;;;;;4955539;28;20131;-76
2022/06/02 10:21:30;;;;;;;1.58;0.85;;;34.50;25.40;;;;;;4955952;28;20062;-76
2022/06/02 10:24:16;;;;;;;1.30;0.77;;;34.00;25.40;;;;;;4956497;29;20031;-76
2022/06/02 10:27:06;;;;;;;3.25;1.35;;;33.20;25.60;;;;;;4937203;29;20090;-76
2022/06/02 10:30:16;;;;;;;1.75;0.68;;;32.10;26.10;;;;;;4937248;29;20578;-76
2022/06/02 10:32:47;;;;;;;1.85;0.70;;;31.80;28.10;;;;;;4940168;29;20036;-76
2022/06/02 10:35:19;;;;;;;2.78;0.82;;;31.30;28.60;;;;;;4937017;29;20652;-76
2022/06/02 10:37:56;;;;;;;2.50;1.27;;;31.00;29.70;;;;;;4936822;29;20482;-76
2022/06/02 10:40:40;;;;;;;2.92;0.70;;;30.60;29.60;;;;;;4936748;29;20131;-76
2022/06/02 10:43:06;;;;;;;2.70;1.17;;;30.30;30.40;;;;;;4936849;29;20103;-76
2022/06/02 10:45:58;;;;;;;3.70;0.95;;;29.80;29.80;;;;;;4944848;29;20023;-76
2022/06/02 10:48:36;;;;;;;4.13;0.85;;;29.40;31.20;;;;;;4956003;29;20027;-76
2022/06/02 10:51:33;;;;;;;1.30;0.77;;;29.00;31.80;;;;;;4954956;28;20078;-76
2022/06/02 10:54:20;;;;;;;1.38;0.75;;;28.40;32.60;;;;;;4955976;28;20034;-76
2022/06/02 10:57:04;;;;;;;3.13;0.90;;;28.30;33.50;;;;;;4936682;29;20049;-76
2022/06/02 11:00:07;;;;;;;1.95;1.00;;;28.20;34.40;;;;;;4936695;29;20039;-76
2022/06/02 11:02:54;;;;;;;2.17;1.02;;;28.00;33.70;;;;;;4936621;29;20036;-76
2022/06/02 11:05:37;;;;;;;1.63;0.93;;;28.00;33.30;;;;;;4936492;29;20075;-76
2022/06/02 11:08:40;;;;;;;1.75;0.90;;;28.10;33.40;;;;;;4936477;29;20028;-76
2022/06/02 11:11:35;;;;;;;2.38;0.80;;;28.30;33.70;;;;;;4940338;28;20030;-76
2022/06/02 11:14:13;;;;;;;4.22;1.00;;;28.80;33.10;;;;;;4940986;29;20127;-76
2022/06/02 11:17:03;;;;;;;4.05;0.73;;;28.90;31.90;;;;;;4936514;29;20035;-76
2022/06/02 11:20:00;;;;;;;1.73;0.70;;;28.50;30.70;;;;;;4937222;29;20102;-78
2022/06/02 11:22:48;;;;;;;3.38;1.05;;;28.40;31.80;;;;;;4936343;29;20035;-76
2022/06/02 11:25:32;;;;;;;1.90;0.90;;;28.60;32.70;;;;;;4936527;29;20032;-76
2022/06/02 11:28:32;;;;;;;1.30;0.90;;;28.70;32.20;;;;;;4936158;29;20095;-75
2022/06/02 11:31:16;;;;;;;5.85;1.25;;;28.40;32.50;;;;;;4935987;29;20056;-76
2022/06/02 11:34:03;;;;;;;2.15;0.95;;;28.30;34.30;;;;;;4950299;29;20023;-76
2022/06/02 11:36:47;;;;;;;3.45;1.38;;;28.00;32.30;;;;;;4945825;29;20031;-76
2022/06/02 11:39:49;;;;;;;2.25;1.02;;;27.90;33.80;;;;;;4936061;29;20080;-76
2022/06/02 11:42:39;;;;;;;1.65;0.95;;;27.70;32.60;;;;;;4934473;29;20059;-75
2022/06/02 11:45:23;;;;;;;2.10;1.00;;;27.80;34.60;;;;;;4940342;29;20039;-76
2022/06/02 11:47:49;;;;;;;3.00;0.95;;;27.30;32.30;;;;;;4955003;28;20034;-76
2022/06/02 11:51:02;;;;;;;1.50;0.70;;;27.30;33.10;;;;;;4954913;28;20028;-75
2022/06/02 11:53:57;;;;;;;3.30;0.98;;;27.40;33.30;;;;;;4937417;29;20095;-75
2022/06/02 11:56:37;;;;;;;1.92;0.90;;;27.50;33.40;;;;;;4935859;29;20034;-76
2022/06/02 11:59:18;;;;;;;2.33;0.93;;;27.30;32.20;;;;;;4934520;29;20450;-75
2022/06/02 12:02:09;;;;;;;3.83;1.10;;;27.40;32.70;;;;;;4935873;29;20038;-76
2022/06/02 12:05:16;;;;;;;1.65;0.95;;;27.70;33.70;;;;;;4935680;29;20035;-76
2022/06/02 12:07:51;;;;;;;1.48;0.88;;;27.80;32.40;;;;;;4916212;29;20044;-76
2022/06/02 12:10:50;;;;;;;2.05;1.08;;;27.50;31.80;;;;;;4935806;29;20164;-75
2022/06/02 12:13:58;;;;;;;1.63;0.75;;;27.20;31.80;;;;;;4935746;29;20062;-76
2022/06/02 12:16:32;;;;;;;2.55;1.02;;;26.70;32.20;;;;;;4957070;28;20814;-76
2022/06/02 12:19:39;;;;;;;4.60;1.00;;;26.50;33.40;;;;;;4953520;29;20027;-75
2022/06/02 12:22:42;;;;;;;1.75;0.70;;;26.80;34.00;;;;;;4947985;29;20071;-76
2022/06/02 12:25:37;;;;;;;3.80;1.25;;;26.80;33.60;;;;;;4938572;29;20024;-75
2022/06/02 12:28:40;;;;;;;2.35;0.98;;;26.80;34.80;;;;;;4937678;29;20742;-76
2022/06/02 12:31:41;;;;;;;1.30;0.70;;;26.90;34.70;;;;;;4937747;29;20512;-76
2022/06/02 12:34:32;;;;;;;2.25;1.38;;;26.90;35.10;;;;;;4971165;28;20039;-76
2022/06/02 12:37:23;;;;;;;2.95;0.82;;;27.00;34.40;;;;;;4957670;28;20024;-75
2022/06/02 12:40:10;;;;;;;4.20;1.10;;;27.30;35.20;;;;;;4939290;29;20035;-75
2022/06/02 12:42:54;;;;;;;5.18;1.15;;;27.70;33.70;;;;;;4953301;28;20077;-75
2022/06/02 12:45:20;;;;;;;2.53;1.20;;;27.90;34.60;;;;;;4945204;29;20027;-75
2022/06/02 12:48:25;;;;;;;2.47;1.00;;;27.90;34.10;;;;;;4946683;28;20035;-75
2022/06/02 12:51:28;;;;;;;2.13;1.00;;;27.80;33.90;;;;;;4937738;29;20032;-75
2022/06/02 12:54:17;;;;;;;2.05;0.80;;;27.80;33.50;;;;;;4941112;29;20082;-75
2022/06/02 12:56:43;;;;;;;2.65;0.90;;;27.60;33.90;;;;;;4958189;28;20031;-76
2022/06/02 12:59:21;;;;;;;4.60;0.90;;;27.50;34.10;;;;;;4957442;28;20090;-76
2022/06/02 13:02:25;;;;;;;2.42;0.85;;;27.30;34.50;;;;;;4937490;29;20091;-76
2022/06/02 13:05:10;;;;;;;1.30;0.70;;;27.20;35.40;;;;;;4936806;29;20039;-76
2022/06/02 13:07:55;;;;;;;2.45;1.10;;;27.10;34.10;;;;;;4938894;29;20028;-76
2022/06/02 13:10:39;;;;;;;1.77;1.02;;;27.10;36.80;;;;;;4938668;29;20027;-76
2022/06/02 13:13:31;;;;;;;152.02;22.15;;;27.30;35.20;;;;;;4937170;29;20028;-76
2022/06/02 13:16:34;;;;;;;40.20;4.55;;;27.70;34.60;;;;;;4938579;29;20044;-75
2022/06/02 13:19:32;;;;;;;38.17;4.43;;;27.80;34.50;;;;;;4938722;29;20042;-75
2022/06/02 13:22:31;;;;;;;2.65;1.00;;;28.00;35.60;;;;;;4954402;28;20466;-75
2022/06/02 13:25:16;;;;;;;1.17;0.82;;;27.80;33.40;;;;;;4957443;28;20034;-76
2022/06/02 13:28:00;;;;;;;2.22;0.82;;;27.80;32.40;;;;;;4947209;28;20043;-75
2022/06/02 13:30:50;;;;;;;1.65;0.90;;;28.00;34.30;;;;;;4937009;29;20133;-75
2022/06/02 13:34:04;;;;;;;3.47;0.80;;;28.00;34.00;;;;;;4949031;29;20036;-75
2022/06/02 13:36:31;;;;;;;2.60;1.00;;;28.30;34.40;;;;;;4957154;28;20039;-75
2022/06/02 13:39:00;;;;;;;4.80;1.13;;;28.40;33.50;;;;;;4957271;28;20027;-75
2022/06/02 13:42:01;;;;;;;2.08;0.93;;;28.60;33.60;;;;;;4943341;28;20466;-76
2022/06/02 13:45:04;;;;;;;3.38;1.00;;;28.50;33.60;;;;;;4952525;29;20044;-75
2022/06/02 13:47:57;;;;;;;4.65;1.15;;;28.30;33.60;;;;;;4953405;29;20043;-76
2022/06/02 13:51:02;;;;;;;2.22;0.80;;;28.30;34.10;;;;;;4957421;28;20035;-76
2022/06/02 13:59:57;;;;;;;4.43;1.40;;;28.30;33.40;;;;;;4939544;28;20143;-77
2022/06/02 14:03:00;;;;;;;5.85;1.38;;;28.00;33.70;;;;;;4960319;28;20615;-77
2022/06/02 14:05:45;;;;;;;3.55;1.40;;;28.00;34.80;;;;;;4945816;29;20071;-76
2022/06/02 14:08:49;;;;;;;2.00;1.38;;;27.90;34.30;;;;;;4946033;29;20027;-76
2022/06/02 14:11:35;;;;;;;2.15;0.90;;;27.80;33.50;;;;;;4954475;29;20031;-76
2022/06/02 14:14:21;;;;;;;2.47;0.82;;;27.80;34.00;;;;;;4952930;29;20048;-76
2022/06/02 14:16:56;;;;;;;6.00;1.17;;;27.80;34.50;;;;;;4955127;29;20031;-77
2022/06/02 14:19:40;;;;;;;2.38;1.10;;;27.90;35.30;;;;;;4968957;28;20074;-76
2022/06/02 14:22:21;;;;;;;4.07;1.10;;;28.00;34.30;;;;;;4954808;29;20031;-76
2022/06/02 14:25:02;;;;;;;1.80;1.00;;;27.90;34.70;;;;;;4955148;29;20638;-76
2022/06/02 14:28:00;;;;;;;3.15;1.08;;;27.80;34.60;;;;;;4953575;29;20031;-76
2022/06/02 14:30:52;;;;;;;2.55;0.90;;;27.70;34.40;;;;;;4962398;28;20039;-77
2022/06/02 14:33:36;;;;;;;2.20;1.00;;;27.70;34.70;;;;;;4952724;29;20040;-77
2022/06/02 14:36:18;;;;;;;1.73;0.90;;;27.70;35.60;;;;;;4950623;28;20039;-77
2022/06/02 14:38:52;;;;;;;3.22;0.95;;;27.60;36.00;;;;;;4941969;28;20569;-78
2022/06/02 14:41:47;;;;;;;1.40;0.90;;;27.80;34.50;;;;;;4936525;29;20063;-75
2022/06/02 14:44:15;;;;;;;1.45;1.10;;;27.90;34.10;;;;;;4936433;29;20126;-76
2022/06/02 14:47:19;;;;;;;6.00;2.63;;;28.00;35.10;;;;;;4935922;29;20035;-76
2022/06/02 14:50:09;;;;;;;2.22;0.82;;;28.00;34.30;;;;;;4935103;29;20036;-76
2022/06/02 14:52:43;;;;;;;2.47;1.13;;;28.00;33.30;;;;;;4936405;29;20179;-76